sensor_id;sensor_type;location;lat;lon;timestamp;pressure;altitude;pressure_sealevel;temperature;humidity
19624;BME280;9959;49.798;9.928;2023-07-02T00:00:01;98839.81;;;16.85;100.00
19624;BME280;9959;49.798;9.928;2023-07-02T00:02:28;98840.66;;;16.85;100.00
19624;BME280;9959;49.798;9.928;2023-07-02T00:04:55;98843.09;;;16.82;100.00
19624;BME280;9959;49.798;9.928;2023-07-02T00:07:22;98842.53;;;16.85;100.00
19624;BME280;9959;49.798;9.928;2023-07-02T00:09:49;98849.06;;;16.79;100.00
19624;BME280;9959;49.798;9.928;2023-07-02T00:12:16;98846.34;;;16.89;100.00
19624;BME280;9959;49.798;9.928;2023-07-02T00:14:43;98843.09;;;16.82;100.00
19624;BME280;9959;49.798;9.928;2023-07-02T00:17:10;98853.97;;;16.82;100.00
19624;BME280;9959;49.798;9.928;2023-07-02T00:19:39;98852.88;;;16.78;100.00
19624;BME280;9959;49.798;9.928;2023-07-02T00:22:12;98856.13;;;16.75;100.00
19624;BME280;9959;49.798;9.928;2023-07-02T00:24:42;98859.94;;;16.79;100.00
19624;BME280;9959;49.798;9.928;2023-07-02T00:27:09;98862.66;;;16.74;100.00
19624;BME280;9959;49.798;9.928;2023-07-02T00:29:36;98863.75;;;16.78;100.00
19624;BME280;9959;49.798;9.928;2023-07-02T00:32:03;98865.13;;;16.85;100.00
19624;BME280;9959;49.798;9.928;2023-07-02T00:34:30;98864.31;;;16.85;100.00
19624;BME280;9959;49.798;9.928;2023-07-02T00:36:57;98870.59;;;16.96;100.00
19624;BME280;9959;49.798;9.928;2023-07-02T00:39:24;98875.19;;;16.90;100.00
19624;BME280;9959;49.798;9.928;2023-07-02T00:41:51;98875.75;;;16.92;100.00
19624;BME280;9959;49.798;9.928;2023-07-02T00:44:17;98867.03;;;16.90;100.00
19624;BME280;9959;49.798;9.928;2023-07-02T00:46:46;98875.72;;;17.02;100.00
19624;BME280;9959;49.798;9.928;2023-07-02T00:49:13;98877.91;;;17.00;100.00
19624;BME280;9959;49.798;9.928;2023-07-02T00:51:41;98870.28;;;17.02;100.00
19624;BME280;9959;49.798;9.928;2023-07-02T00:54:09;98872.19;;;17.07;100.00
19624;BME280;9959;49.798;9.928;2023-07-02T00:56:36;98869.47;;;17.07;99.27
19624;BME280;9959;49.798;9.928;2023-07-02T00:59:03;98874.09;;;17.01;98.83
19624;BME280;9959;49.798;9.928;2023-07-02T01:01:30;98873.00;;;16.97;98.71
19624;BME280;9959;49.798;9.928;2023-07-02T01:04:01;98879.81;;;17.00;97.88
19624;BME280;9959;49.798;9.928;2023-07-02T01:06:31;98884.19;;;16.90;98.05
19624;BME280;9959;49.798;9.928;2023-07-02T01:08:59;98884.44;;;16.89;98.00
19624;BME280;9959;49.798;9.928;2023-07-02T01:11:50;98876.81;;;16.86;97.81
19624;BME280;9959;49.798;9.928;2023-07-02T01:14:41;98879.53;;;16.86;96.85
19624;BME280;9959;49.798;9.928;2023-07-02T01:17:10;98873.28;;;16.90;96.29
19624;BME280;9959;49.798;9.928;2023-07-02T01:19:49;98880.09;;;16.93;96.08
19624;BME280;9959;49.798;9.928;2023-07-02T01:22:22;98875.72;;;16.82;97.32
19624;BME280;9959;49.798;9.928;2023-07-02T01:24:50;98884.44;;;16.89;96.24
19624;BME280;9959;49.798;9.928;2023-07-02T01:27:17;98876.28;;;16.79;96.85
19624;BME280;9959;49.798;9.928;2023-07-02T01:29:44;98880.88;;;16.78;97.04
19624;BME280;9959;49.798;9.928;2023-07-02T01:32:14;98876.78;;;16.71;96.90
19624;BME280;9959;49.798;9.928;2023-07-02T01:34:40;98871.91;;;16.73;96.89
19624;BME280;9959;49.798;9.928;2023-07-02T01:37:07;98870.28;;;16.82;95.33
19624;BME280;9959;49.798;9.928;2023-07-02T01:39:36;98865.94;;;16.76;95.39
19624;BME280;9959;49.798;9.928;2023-07-02T01:42:10;98872.72;;;16.73;95.23
19624;BME280;9959;49.798;9.928;2023-07-02T01:44:38;98877.88;;;16.70;94.99
19624;BME280;9959;49.798;9.928;2023-07-02T01:47:05;98884.44;;;16.64;95.59
19624;BME280;9959;49.798;9.928;2023-07-02T01:49:32;98882.75;;;16.63;95.70
19624;BME280;9959;49.798;9.928;2023-07-02T01:51:59;98883.28;;;16.54;95.57
19624;BME280;9959;49.798;9.928;2023-07-02T01:54:27;98885.69;;;16.46;96.20
19624;BME280;9959;49.798;9.928;2023-07-02T01:56:55;98896.56;;;16.46;95.79
19624;BME280;9959;49.798;9.928;2023-07-02T01:59:23;98905.53;;;16.36;96.77
19624;BME280;9959;49.798;9.928;2023-07-02T02:01:50;98919.41;;;16.35;96.51
19624;BME280;9959;49.798;9.928;2023-07-02T02:04:17;98921.31;;;16.39;95.77
19624;BME280;9959;49.798;9.928;2023-07-02T02:06:44;98926.75;;;16.39;94.34
19624;BME280;9959;49.798;9.928;2023-07-02T02:09:11;98915.88;;;16.39;93.96
19624;BME280;9959;49.798;9.928;2023-07-02T02:11:44;98926.75;;;16.39;92.84
19624;BME280;9959;49.798;9.928;2023-07-02T02:14:11;98927.28;;;16.36;91.99
19624;BME280;9959;49.798;9.928;2023-07-02T02:16:38;98927.28;;;16.36;91.11
19624;BME280;9959;49.798;9.928;2023-07-02T02:19:05;98921.28;;;16.29;91.00
19624;BME280;9959;49.798;9.928;2023-07-02T02:21:32;98922.91;;;16.30;91.23
19624;BME280;9959;49.798;9.928;2023-07-02T02:23:59;98930.47;;;16.18;91.57
19624;BME280;9959;49.798;9.928;2023-07-02T02:26:26;98927.75;;;16.13;92.18
19624;BME280;9959;49.798;9.928;2023-07-02T02:28:53;98935.59;;;16.04;92.67
19624;BME280;9959;49.798;9.928;2023-07-02T02:31:20;98922.22;;;15.98;93.14
19624;BME280;9959;49.798;9.928;2023-07-02T02:33:47;98924.06;;;15.87;93.66
19624;BME280;9959;49.798;9.928;2023-07-02T02:36:15;98926.53;;;15.88;94.34
19624;BME280;9959;49.798;9.928;2023-07-02T02:38:43;98934.66;;;15.83;93.78
19624;BME280;9959;49.798;9.928;2023-07-02T02:41:10;98938.44;;;15.77;95.02
19624;BME280;9959;49.798;9.928;2023-07-02T02:43:37;98939.47;;;15.71;95.36
19624;BME280;9959;49.798;9.928;2023-07-02T02:46:07;98944.31;;;15.59;95.55
19624;BME280;9959;49.798;9.928;2023-07-02T02:48:34;98942.56;;;15.48;95.33
19624;BME280;9959;49.798;9.928;2023-07-02T02:51:01;98937.16;;;15.53;94.67
19624;BME280;9959;49.798;9.928;2023-07-02T02:53:27;98939.28;;;15.46;95.36
19624;BME280;9959;49.798;9.928;2023-07-02T02:55:54;98938.75;;;15.49;94.90
19624;BME280;9959;49.798;9.928;2023-07-02T02:58:22;98949.47;;;15.34;95.76
19624;BME280;9959;49.798;9.928;2023-07-02T03:00:49;98946.19;;;15.27;96.00
19624;BME280;9959;49.798;9.928;2023-07-02T03:03:18;98947.22;;;15.20;96.08
19624;BME280;9959;49.798;9.928;2023-07-02T03:05:47;98945.69;;;15.30;95.01
19624;BME280;9959;49.798;9.928;2023-07-02T03:08:15;98944.50;;;15.20;94.53
19624;BME280;9959;49.798;9.928;2023-07-02T03:10:42;98941.19;;;15.13;94.50
19624;BME280;9959;49.798;9.928;2023-07-02T03:13:08;98949.31;;;15.13;94.10
19624;BME280;9959;49.798;9.928;2023-07-02T03:15:35;98952.47;;;15.00;95.35
19624;BME280;9959;49.798;9.928;2023-07-02T03:18:02;98951.72;;;15.10;94.91
19624;BME280;9959;49.798;9.928;2023-07-02T03:20:29;98944.91;;;15.02;95.17
19624;BME280;9959;49.798;9.928;2023-07-02T03:22:56;98948.72;;;15.06;94.66
19624;BME280;9959;49.798;9.928;2023-07-02T03:25:23;98948.91;;;14.95;95.63
19624;BME280;9959;49.798;9.928;2023-07-02T03:27:50;98957.91;;;15.00;95.42
19624;BME280;9959;49.798;9.928;2023-07-02T03:30:16;98951.88;;;14.93;95.11
19624;BME280;9959;49.798;9.928;2023-07-02T03:32:43;98953.72;;;14.87;95.11
19624;BME280;9959;49.798;9.928;2023-07-02T03:35:10;98962.22;;;14.96;93.66
19624;BME280;9959;49.798;9.928;2023-07-02T03:37:37;98962.81;;;15.03;93.90
19624;BME280;9959;49.798;9.928;2023-07-02T03:40:04;98957.97;;;15.10;93.05
19624;BME280;9959;49.798;9.928;2023-07-02T03:42:32;98958.47;;;15.02;93.41
19624;BME280;9959;49.798;9.928;2023-07-02T03:44:59;98962.84;;;15.08;92.37
19624;BME280;9959;49.798;9.928;2023-07-02T03:47:26;98953.88;;;15.08;92.44
19624;BME280;9959;49.798;9.928;2023-07-02T03:49:53;98956.28;;;14.99;92.80
19624;BME280;9959;49.798;9.928;2023-07-02T03:52:20;98959.50;;;14.96;93.26
19624;BME280;9959;49.798;9.928;2023-07-02T03:54:47;98962.25;;;15.01;93.88
19624;BME280;9959;49.798;9.928;2023-07-02T03:57:14;98970.97;;;15.08;93.21
19624;BME280;9959;49.798;9.928;2023-07-02T03:59:41;98960.56;;;14.95;93.42
19624;BME280;9959;49.798;9.928;2023-07-02T04:02:07;98957.59;;;14.97;93.25
19624;BME280;9959;49.798;9.928;2023-07-02T04:04:34;98962.16;;;14.91;93.59
19624;BME280;9959;49.798;9.928;2023-07-02T04:07:01;98966.50;;;14.92;95.45
19624;BME280;9959;49.798;9.928;2023-07-02T04:09:28;98967.88;;;14.95;96.53
19624;BME280;9959;49.798;9.928;2023-07-02T04:11:55;98978.94;;;14.88;97.12
19624;BME280;9959;49.798;9.928;2023-07-02T04:14:22;98985.53;;;14.97;97.82
19624;BME280;9959;49.798;9.928;2023-07-02T04:16:49;98990.66;;;14.94;98.02
19624;BME280;9959;49.798;9.928;2023-07-02T04:19:16;99002.31;;;14.94;97.17
19624;BME280;9959;49.798;9.928;2023-07-02T04:21:43;98994.75;;;14.96;93.85
19624;BME280;9959;49.798;9.928;2023-07-02T04:24:10;99001.91;;;15.07;92.37
19624;BME280;9959;49.798;9.928;2023-07-02T04:26:37;98996.88;;;15.21;88.36
19624;BME280;9959;49.798;9.928;2023-07-02T04:29:24;99003.31;;;15.42;86.82
19624;BME280;9959;49.798;9.928;2023-07-02T04:31:51;99010.88;;;15.40;85.31
19624;BME280;9959;49.798;9.928;2023-07-02T04:34:18;99010.97;;;15.50;83.31
19624;BME280;9959;49.798;9.928;2023-07-02T04:36:48;99015.53;;;15.44;82.72
19624;BME280;9959;49.798;9.928;2023-07-02T04:39:19;99016.34;;;15.45;81.02
19624;BME280;9959;49.798;9.928;2023-07-02T04:41:45;99014.78;;;15.49;81.41
19624;BME280;9959;49.798;9.928;2023-07-02T04:44:12;99020.00;;;15.55;80.79
19624;BME280;9959;49.798;9.928;2023-07-02T04:46:39;99023.06;;;15.64;80.13
19624;BME280;9959;49.798;9.928;2023-07-02T04:49:06;99023.56;;;15.61;79.00
19624;BME280;9959;49.798;9.928;2023-07-02T04:51:33;99027.34;;;15.60;78.86
19624;BME280;9959;49.798;9.928;2023-07-02T04:54:00;99026.38;;;15.71;77.85
19624;BME280;9959;49.798;9.928;2023-07-02T04:56:26;99032.16;;;15.80;75.88
19624;BME280;9959;49.798;9.928;2023-07-02T04:58:53;99027.53;;;15.80;75.54
19624;BME280;9959;49.798;9.928;2023-07-02T05:01:20;99034.09;;;15.84;75.68
19624;BME280;9959;49.798;9.928;2023-07-02T05:03:47;99035.75;;;15.90;74.96
19624;BME280;9959;49.798;9.928;2023-07-02T05:06:14;99042.94;;;16.07;74.55
19624;BME280;9959;49.798;9.928;2023-07-02T05:08:41;99041.91;;;16.23;74.00
19624;BME280;9959;49.798;9.928;2023-07-02T05:11:08;99052.91;;;16.43;73.41
19624;BME280;9959;49.798;9.928;2023-07-02T05:13:35;99061.66;;;16.55;71.68
19624;BME280;9959;49.798;9.928;2023-07-02T05:16:02;99057.63;;;16.63;71.33
19624;BME280;9959;49.798;9.928;2023-07-02T05:18:29;99052.38;;;16.46;71.13
19624;BME280;9959;49.798;9.928;2023-07-02T05:20:56;99052.88;;;16.33;71.82
19624;BME280;9959;49.798;9.928;2023-07-02T05:23:23;99050.06;;;16.23;71.67
19624;BME280;9959;49.798;9.928;2023-07-02T05:25:50;99051.81;;;16.39;71.94
19624;BME280;9959;49.798;9.928;2023-07-02T05:28:16;99046.53;;;16.22;71.56
19624;BME280;9959;49.798;9.928;2023-07-02T05:30:43;99048.69;;;16.20;71.15
19624;BME280;9959;49.798;9.928;2023-07-02T05:33:10;99040.53;;;16.20;71.37
19624;BME280;9959;49.798;9.928;2023-07-02T05:35:37;99038.63;;;16.16;70.78
19624;BME280;9959;49.798;9.928;2023-07-02T05:38:04;99037.41;;;16.39;70.83
19624;BME280;9959;49.798;9.928;2023-07-02T05:40:31;99035.00;;;16.52;70.52
19624;BME280;9959;49.798;9.928;2023-07-02T05:42:58;99030.69;;;16.56;69.68
19624;BME280;9959;49.798;9.928;2023-07-02T05:45:24;99041.25;;;16.53;69.40
19624;BME280;9959;49.798;9.928;2023-07-02T05:47:53;99036.94;;;16.57;68.66
19624;BME280;9959;49.798;9.928;2023-07-02T05:50:20;99038.00;;;16.56;68.69
19624;BME280;9959;49.798;9.928;2023-07-02T05:52:47;99035.16;;;16.83;67.48
19624;BME280;9959;49.798;9.928;2023-07-02T05:55:14;99038.66;;;16.68;67.79
19624;BME280;9959;49.798;9.928;2023-07-02T05:57:41;99047.38;;;16.80;67.56
19624;BME280;9959;49.798;9.928;2023-07-02T06:00:08;99044.53;;;16.55;67.17
19624;BME280;9959;49.798;9.928;2023-07-02T06:02:35;99053.03;;;16.69;67.03
19624;BME280;9959;49.798;9.928;2023-07-02T06:05:03;99051.97;;;16.75;66.32
19624;BME280;9959;49.798;9.928;2023-07-02T06:07:30;99066.75;;;16.89;65.93
19624;BME280;9959;49.798;9.928;2023-07-02T06:09:57;99052.38;;;17.14;64.59
19624;BME280;9959;49.798;9.928;2023-07-02T06:12:24;99062.97;;;17.10;64.31
19624;BME280;9959;49.798;9.928;2023-07-02T06:14:51;99065.91;;;16.88;64.94
19624;BME280;9959;49.798;9.928;2023-07-02T06:17:17;99072.53;;;17.13;64.34
19624;BME280;9959;49.798;9.928;2023-07-02T06:19:44;99074.47;;;17.38;63.31
19624;BME280;9959;49.798;9.928;2023-07-02T06:22:11;99085.88;;;17.30;63.03
19624;BME280;9959;49.798;9.928;2023-07-02T06:24:38;99090.53;;;17.34;63.32
19624;BME280;9959;49.798;9.928;2023-07-02T06:27:05;99094.59;;;17.26;63.64
19624;BME280;9959;49.798;9.928;2023-07-02T06:29:32;99098.16;;;17.37;63.14
19624;BME280;9959;49.798;9.928;2023-07-02T06:32:02;99093.56;;;17.63;62.65
19624;BME280;9959;49.798;9.928;2023-07-02T06:34:29;99099.56;;;18.21;60.36
19624;BME280;9959;49.798;9.928;2023-07-02T06:36:56;99102.84;;;18.18;60.18
19624;BME280;9959;49.798;9.928;2023-07-02T06:39:23;99090.06;;;17.93;61.49
19624;BME280;9959;49.798;9.928;2023-07-02T06:41:49;99097.94;;;18.10;60.27
19624;BME280;9959;49.798;9.928;2023-07-02T06:44:16;99099.34;;;17.77;61.99
19624;BME280;9959;49.798;9.928;2023-07-02T06:46:46;99108.31;;;17.87;61.37
19624;BME280;9959;49.798;9.928;2023-07-02T06:49:13;99088.41;;;17.87;62.02
19624;BME280;9959;49.798;9.928;2023-07-02T06:51:39;99099.06;;;17.68;62.68
19624;BME280;9959;49.798;9.928;2023-07-02T06:54:07;99090.34;;;17.91;61.71
19624;BME280;9959;49.798;9.928;2023-07-02T06:56:34;99093.59;;;17.99;61.76
19624;BME280;9959;49.798;9.928;2023-07-02T06:59:01;99096.84;;;18.06;61.37
19624;BME280;9959;49.798;9.928;2023-07-02T07:01:28;99089.47;;;18.32;61.02
19624;BME280;9959;49.798;9.928;2023-07-02T07:03:55;99087.84;;;18.31;60.59
19624;BME280;9959;49.798;9.928;2023-07-02T07:06:22;99094.59;;;18.48;59.68
19624;BME280;9959;49.798;9.928;2023-07-02T07:08:49;99090.25;;;18.42;59.73
19624;BME280;9959;49.798;9.928;2023-07-02T07:11:16;99090.31;;;19.07;58.39
19624;BME280;9959;49.798;9.928;2023-07-02T07:13:43;99105.78;;;18.57;59.61
19624;BME280;9959;49.798;9.928;2023-07-02T07:16:11;99103.16;;;19.06;58.58
19624;BME280;9959;49.798;9.928;2023-07-02T07:18:38;99088.94;;;19.09;58.56
19624;BME280;9959;49.798;9.928;2023-07-02T07:21:05;99087.97;;;18.85;58.49
19624;BME280;9959;49.798;9.928;2023-07-02T07:23:32;99082.41;;;19.05;58.39
19624;BME280;9959;49.798;9.928;2023-07-02T07:25:59;99085.25;;;19.34;58.02
19624;BME280;9959;49.798;9.928;2023-07-02T07:28:26;99074.22;;;19.10;58.20
19624;BME280;9959;49.798;9.928;2023-07-02T07:30:52;99082.22;;;19.41;57.67
19624;BME280;9959;49.798;9.928;2023-07-02T07:33:19;99079.53;;;19.75;56.49
19624;BME280;9959;49.798;9.928;2023-07-02T07:35:46;99085.50;;;19.38;57.04
19624;BME280;9959;49.798;9.928;2023-07-02T07:38:13;99101.09;;;19.76;55.95
19624;BME280;9959;49.798;9.928;2023-07-02T07:40:42;99085.97;;;19.89;56.10
19624;BME280;9959;49.798;9.928;2023-07-02T07:43:09;99081.88;;;20.20;54.81
19624;BME280;9959;49.798;9.928;2023-07-02T07:45:36;99098.72;;;19.99;55.68
19624;BME280;9959;49.798;9.928;2023-07-02T07:48:05;99092.56;;;20.17;55.48
19624;BME280;9959;49.798;9.928;2023-07-02T07:50:32;99092.44;;;20.80;53.53
19624;BME280;9959;49.798;9.928;2023-07-02T07:52:59;99100.78;;;20.93;53.28
19624;BME280;9959;49.798;9.928;2023-07-02T07:55:26;99086.56;;;20.68;53.40
19624;BME280;9959;49.798;9.928;2023-07-02T07:57:53;99094.19;;;20.18;54.83
19624;BME280;9959;49.798;9.928;2023-07-02T08:00:20;99101.88;;;20.45;55.44
19624;BME280;9959;49.798;9.928;2023-07-02T08:02:47;99094.53;;;19.77;56.16
19624;BME280;9959;49.798;9.928;2023-07-02T08:05:14;99099.41;;;20.48;54.05
19624;BME280;9959;49.798;9.928;2023-07-02T08:07:41;99089.59;;;20.66;54.05
19624;BME280;9959;49.798;9.928;2023-07-02T08:10:09;99089.78;;;21.17;52.53
19624;BME280;9959;49.798;9.928;2023-07-02T08:12:36;99100.78;;;21.55;51.19
19624;BME280;9959;49.798;9.928;2023-07-02T08:15:03;99105.81;;;21.48;50.63
19624;BME280;9959;49.798;9.928;2023-07-02T08:17:30;99122.19;;;21.53;50.75
19624;BME280;9959;49.798;9.928;2023-07-02T08:19:57;99106.00;;;22.08;49.34
19624;BME280;9959;49.798;9.928;2023-07-02T08:22:24;99114.34;;;21.98;49.24
19624;BME280;9959;49.798;9.928;2023-07-02T08:24:51;99120.19;;;22.28;48.21
19624;BME280;9959;49.798;9.928;2023-07-02T08:27:18;99121.34;;;21.34;50.29
19624;BME280;9959;49.798;9.928;2023-07-02T08:29:48;99125.00;;;21.05;51.76
19624;BME280;9959;49.798;9.928;2023-07-02T08:32:15;99115.16;;;20.56;52.14
19624;BME280;9959;49.798;9.928;2023-07-02T08:34:42;99142.59;;;20.17;53.39
19624;BME280;9959;49.798;9.928;2023-07-02T08:37:09;99135.00;;;20.43;53.46
19624;BME280;9959;49.798;9.928;2023-07-02T08:39:37;99134.94;;;19.85;53.89
19624;BME280;9959;49.798;9.928;2023-07-02T08:42:06;99145.72;;;20.06;52.73
19624;BME280;9959;49.798;9.928;2023-07-02T08:44:34;99142.09;;;19.76;53.88
19624;BME280;9959;49.798;9.928;2023-07-02T08:47:02;99143.19;;;20.48;51.87
19624;BME280;9959;49.798;9.928;2023-07-02T08:49:30;99137.94;;;19.84;53.13
19624;BME280;9959;49.798;9.928;2023-07-02T08:51:57;99143.22;;;20.43;51.99
19624;BME280;9959;49.798;9.928;2023-07-02T08:54:24;99117.91;;;20.80;50.58
19624;BME280;9959;49.798;9.928;2023-07-02T08:56:51;99132.25;;;20.96;49.99
19624;BME280;9959;49.798;9.928;2023-07-02T08:59:18;99137.59;;;21.49;47.95
19624;BME280;9959;49.798;9.928;2023-07-02T09:01:49;99124.47;;;21.83;47.08
19624;BME280;9959;49.798;9.928;2023-07-02T09:04:21;99126.03;;;22.22;46.65
19624;BME280;9959;49.798;9.928;2023-07-02T09:07:08;99130.47;;;22.37;45.67
19624;BME280;9959;49.798;9.928;2023-07-02T09:09:48;99133.38;;;21.75;47.47
19624;BME280;9959;49.798;9.928;2023-07-02T09:15:04;99139.66;;;22.13;46.08
19624;BME280;9959;49.798;9.928;2023-07-02T09:17:37;99128.56;;;23.33;43.68
19624;BME280;9959;49.798;9.928;2023-07-02T09:20:05;99129.50;;;24.23;41.89
19624;BME280;9959;49.798;9.928;2023-07-02T09:22:36;99129.63;;;22.82;44.50
19624;BME280;9959;49.798;9.928;2023-07-02T09:25:03;99126.53;;;22.56;44.80
19624;BME280;9959;49.798;9.928;2023-07-02T09:27:41;99145.81;;;21.68;46.82
19624;BME280;9959;49.798;9.928;2023-07-02T09:30:10;99145.81;;;21.86;46.14
19624;BME280;9959;49.798;9.928;2023-07-02T09:32:39;99147.31;;;21.17;47.31
19624;BME280;9959;49.798;9.928;2023-07-02T09:35:07;99137.22;;;22.72;44.16
19624;BME280;9959;49.798;9.928;2023-07-02T09:37:34;99134.91;;;23.06;42.55
19624;BME280;9959;49.798;9.928;2023-07-02T09:40:01;99130.13;;;22.98;42.59
19624;BME280;9959;49.798;9.928;2023-07-02T09:42:33;99132.22;;;23.42;42.10
19624;BME280;9959;49.798;9.928;2023-07-02T09:45:02;99136.00;;;24.49;40.45
19624;BME280;9959;49.798;9.928;2023-07-02T09:47:31;99132.25;;;24.45;40.37
19624;BME280;9959;49.798;9.928;2023-07-02T09:50:03;99141.09;;;23.39;41.82
19624;BME280;9959;49.798;9.928;2023-07-02T09:52:33;99131.75;;;23.76;41.25
19624;BME280;9959;49.798;9.928;2023-07-02T09:55:05;99137.34;;;23.21;42.80
19624;BME280;9959;49.798;9.928;2023-07-02T09:57:33;99141.97;;;22.52;44.02
19624;BME280;9959;49.798;9.928;2023-07-02T10:00:03;99136.47;;;22.52;44.47
19624;BME280;9959;49.798;9.928;2023-07-02T10:02:31;99137.84;;;22.22;45.23
19624;BME280;9959;49.798;9.928;2023-07-02T10:04:59;99131.00;;;21.87;44.97
19624;BME280;9959;49.798;9.928;2023-07-02T10:07:28;99136.53;;;23.07;43.07
19624;BME280;9959;49.798;9.928;2023-07-02T10:09:55;99137.38;;;24.38;40.06
19624;BME280;9959;49.798;9.928;2023-07-02T10:12:24;99132.06;;;23.97;40.47
19624;BME280;9959;49.798;9.928;2023-07-02T10:14:53;99129.34;;;23.61;40.37
19624;BME280;9959;49.798;9.928;2023-07-02T10:17:31;99128.41;;;22.88;40.99
19624;BME280;9959;49.798;9.928;2023-07-02T10:20:02;99149.69;;;22.37;42.41
19624;BME280;9959;49.798;9.928;2023-07-02T10:22:45;99142.25;;;23.74;39.33
19624;BME280;9959;49.798;9.928;2023-07-02T10:25:12;99140.13;;;22.94;40.54
19624;BME280;9959;49.798;9.928;2023-07-02T10:27:42;99145.81;;;23.11;40.15
19624;BME280;9959;49.798;9.928;2023-07-02T10:30:10;99133.81;;;22.34;41.44
19624;BME280;9959;49.798;9.928;2023-07-02T10:32:37;99150.34;;;21.77;42.40
19624;BME280;9959;49.798;9.928;2023-07-02T10:35:18;99141.31;;;22.28;41.45
19624;BME280;9959;49.798;9.928;2023-07-02T10:37:45;99134.03;;;22.37;41.26
19624;BME280;9959;49.798;9.928;2023-07-02T10:40:12;99138.88;;;23.00;39.43
19624;BME280;9959;49.798;9.928;2023-07-02T10:42:50;99149.69;;;24.32;38.00
19624;BME280;9959;49.798;9.928;2023-07-02T10:45:18;99136.00;;;23.82;38.17
19624;BME280;9959;49.798;9.928;2023-07-02T10:47:46;99129.63;;;23.10;39.57
19624;BME280;9959;49.798;9.928;2023-07-02T10:50:20;99125.53;;;22.66;39.91
19624;BME280;9959;49.798;9.928;2023-07-02T10:52:48;99134.50;;;22.99;39.82
19624;BME280;9959;49.798;9.928;2023-07-02T10:55:25;99141.44;;;22.83;39.73
19624;BME280;9959;49.798;9.928;2023-07-02T10:58:07;99130.56;;;23.55;38.44
19624;BME280;9959;49.798;9.928;2023-07-02T11:00:49;99132.88;;;23.98;37.84
19624;BME280;9959;49.798;9.928;2023-07-02T11:03:17;99114.97;;;22.87;39.39
19624;BME280;9959;49.798;9.928;2023-07-02T11:05:46;99125.97;;;22.87;39.64
19624;BME280;9959;49.798;9.928;2023-07-02T11:08:14;99142.25;;;23.24;38.99
19624;BME280;9959;49.798;9.928;2023-07-02T11:10:42;99138.50;;;24.59;36.61
19624;BME280;9959;49.798;9.928;2023-07-02T11:13:17;99129.16;;;23.80;38.01
19624;BME280;9959;49.798;9.928;2023-07-02T11:15:45;99107.84;;;23.13;38.29
19624;BME280;9959;49.798;9.928;2023-07-02T11:18:17;99118.72;;;24.13;37.42
19624;BME280;9959;49.798;9.928;2023-07-02T11:20:46;99126.66;;;24.28;36.49
19624;BME280;9959;49.798;9.928;2023-07-02T11:23:34;99128.13;;;23.89;37.06
19624;BME280;9959;49.798;9.928;2023-07-02T11:26:02;99126.38;;;23.21;37.95
19624;BME280;9959;49.798;9.928;2023-07-02T11:28:31;99119.94;;;23.12;37.96
19624;BME280;9959;49.798;9.928;2023-07-02T11:31:00;99118.63;;;22.82;38.99
19624;BME280;9959;49.798;9.928;2023-07-02T11:33:36;99123.50;;;22.99;39.09
19624;BME280;9959;49.798;9.928;2023-07-02T11:36:07;99132.97;;;24.06;36.99
19624;BME280;9959;49.798;9.928;2023-07-02T11:38:36;99117.91;;;24.57;36.32
19624;BME280;9959;49.798;9.928;2023-07-02T11:41:03;99115.84;;;24.18;36.63
19624;BME280;9959;49.798;9.928;2023-07-02T11:43:31;99113.72;;;24.37;35.44
19624;BME280;9959;49.798;9.928;2023-07-02T11:45:58;99115.72;;;24.76;35.99
19624;BME280;9959;49.798;9.928;2023-07-02T11:48:25;99111.97;;;24.19;35.54
19624;BME280;9959;49.798;9.928;2023-07-02T11:50:52;99107.72;;;24.13;35.59
19624;BME280;9959;49.798;9.928;2023-07-02T11:53:19;99115.59;;;23.83;36.75
19624;BME280;9959;49.798;9.928;2023-07-02T11:55:46;99110.19;;;25.16;34.48
19624;BME280;9959;49.798;9.928;2023-07-02T11:58:13;99119.31;;;24.94;34.90
19624;BME280;9959;49.798;9.928;2023-07-02T12:00:40;99114.81;;;25.72;33.51
19624;BME280;9959;49.798;9.928;2023-07-02T12:03:07;99107.91;;;25.18;34.38
19624;BME280;9959;49.798;9.928;2023-07-02T12:05:34;99102.56;;;25.21;34.33
19624;BME280;9959;49.798;9.928;2023-07-02T12:08:02;99103.91;;;24.22;34.64
19624;BME280;9959;49.798;9.928;2023-07-02T12:10:29;99094.31;;;24.73;33.89
19624;BME280;9959;49.798;9.928;2023-07-02T12:12:56;99108.56;;;25.23;32.92
19624;BME280;9959;49.798;9.928;2023-07-02T12:15:23;99105.50;;;25.25;32.11
19624;BME280;9959;49.798;9.928;2023-07-02T12:17:50;99112.84;;;26.16;30.93
19624;BME280;9959;49.798;9.928;2023-07-02T12:20:17;99103.53;;;26.46;30.57
19624;BME280;9959;49.798;9.928;2023-07-02T12:22:44;99104.59;;;24.50;33.57
19624;BME280;9959;49.798;9.928;2023-07-02T12:25:11;99111.00;;;25.16;33.35
19624;BME280;9959;49.798;9.928;2023-07-02T12:27:38;99106.28;;;26.29;31.52
19624;BME280;9959;49.798;9.928;2023-07-02T12:30:05;99103.44;;;25.82;32.07
19624;BME280;9959;49.798;9.928;2023-07-02T12:32:32;99109.41;;;25.33;32.32
19624;BME280;9959;49.798;9.928;2023-07-02T12:34:59;99108.72;;;24.17;34.26
19624;BME280;9959;49.798;9.928;2023-07-02T12:37:26;99111.81;;;23.71;35.48
19624;BME280;9959;49.798;9.928;2023-07-02T12:39:53;99106.75;;;24.31;34.69
19624;BME280;9959;49.798;9.928;2023-07-02T12:42:20;99102.94;;;23.96;35.73
19624;BME280;9959;49.798;9.928;2023-07-02T12:44:47;99102.75;;;23.92;35.46
19624;BME280;9959;49.798;9.928;2023-07-02T12:47:14;99112.00;;;23.96;35.30
19624;BME280;9959;49.798;9.928;2023-07-02T12:49:41;99108.56;;;23.55;35.97
19624;BME280;9959;49.798;9.928;2023-07-02T12:52:08;99108.38;;;24.32;35.32
19624;BME280;9959;49.798;9.928;2023-07-02T12:54:34;99111.25;;;24.27;34.57
19624;BME280;9959;49.798;9.928;2023-07-02T12:57:01;99114.72;;;24.41;34.10
19624;BME280;9959;49.798;9.928;2023-07-02T12:59:28;99115.81;;;24.32;34.54
19624;BME280;9959;49.798;9.928;2023-07-02T13:01:55;99106.75;;;24.71;33.47
19624;BME280;9959;49.798;9.928;2023-07-02T13:04:22;99110.84;;;25.21;33.10
19624;BME280;9959;49.798;9.928;2023-07-02T13:06:49;99101.03;;;26.53;31.24
19624;BME280;9959;49.798;9.928;2023-07-02T13:09:16;99103.72;;;24.41;32.88
19624;BME280;9959;49.798;9.928;2023-07-02T13:11:43;99122.47;;;24.70;32.69
19624;BME280;9959;49.798;9.928;2023-07-02T13:14:10;99111.97;;;24.41;33.04
19624;BME280;9959;49.798;9.928;2023-07-02T13:16:37;99106.88;;;24.26;34.21